Dades meteomassalio
Diari Summary for Gener 17, 2018 Units:  Metric    English   Both
« Previous Day
Next Day »
Diari Semanal Mensual Anual Personalitzat
  Maxima: Minima: Mijana:
Temperatura: -17.8 °C -13.8 °C -12.3 °C
Rosada: -17.8 °C -16.4 °C -15.5 °C
Humitat: Humidity % 52 % 67 %
Velocitat del vent: 0 km/h 17.9 km/h 50.2 km/h
Racha vent: 0 km/h - -
Vent:- - NW
Pressio: 0 hPa 34645.6 hPa -
Pluja: 0 mm    
Historical Graphs
 
 
Tabular Data for Gener 17, 2018
Time Temperature Dew Point Pressure Wind Wind Speed Wind Gust Humidity Rainfall Rate (Hourly) solar Conditions
-17.8 °C -17.8 °C 0 hPa Calm     Humidity % 0 mm SolarRadiationWatts/m^2 W/m2 Conditions
00:26 -12.2 °C -14.9 °C 34716.7 hPa WNW 29.8 km/h 29.8 km/h 72 % 0 mm 0.0 W/m2 CLR
00:32 -12.6 °C -15.3 °C 34716.7 hPa NW 23.8 km/h 23.8 km/h 71 % 0 mm 0.0 W/m2 CLR
00:39 -12.6 °C -15.3 °C 34703.1 hPa NW 23.8 km/h 23.8 km/h 71 % 0 mm 0.0 W/m2 CLR
01:12 -12.2 °C -15.2 °C 34693 hPa WNW 38.8 km/h 38.8 km/h 69 % 0 mm 0.0 W/m2 CLR
01:49 -11.6 °C -14.7 °C 34682.8 hPa WNW 23.8 km/h 23.8 km/h 69 % 0 mm 0.0 W/m2 CLR
02:01 -11.6 °C -14.6 °C 34669.3 hPa WNW 26.9 km/h 26.9 km/h 70 % 0 mm 0.0 W/m2 CLR
02:08 -11.6 °C -14.6 °C 34669.3 hPa NW 23.3 km/h 23.3 km/h 70 % 0 mm 0.0 W/m2 CLR
02:55 -11.6 °C -14.7 °C 34659.1 hPa NW 50.7 km/h 50.7 km/h 69 % 0 mm 0.0 W/m2 CLR
04:17 -11.6 °C -14.7 °C 34645.6 hPa NW 32.8 km/h 32.8 km/h 69 % 0 mm 0.0 W/m2 CLR
05:29 -10.7 °C -13.9 °C 34659.1 hPa NW 44.1 km/h 44.1 km/h 68 % 0 mm 0.0 W/m2 CLR
06:03 -11.3 °C -14.3 °C 34659.1 hPa NW 38.8 km/h 38.8 km/h 69 % 0 mm 0.0 W/m2 CLR
06:15 -11 °C -14.1 °C 34659.1 hPa North 59.5 km/h 59.5 km/h 69 % 0 mm 0.0 W/m2 CLR
06:54 -11.3 °C -14.1 °C 34659.1 hPa North 53.6 km/h 53.6 km/h 71 % 0 mm 0.0 W/m2 CLR
07:00 -11.3 °C -14.1 °C 34669.3 hPa NNW 62.6 km/h 62.6 km/h 71 % 0 mm 0.0 W/m2 CLR
07:06 -11.3 °C -14.1 °C 34669.3 hPa North 80.5 km/h 80.5 km/h 71 % 0 mm 0.0 W/m2 CLR
07:55 -11.3 °C -14 °C 34682.8 hPa NW 65.5 km/h 65.5 km/h 72 % 0 mm 0.0 W/m2 CLR
08:17 -11.6 °C -14.2 °C 34693 hPa North 68.6 km/h 68.6 km/h 73 % 0 mm 0.0 W/m2 OVC
08:36 -11.6 °C -14.1 °C 34693 hPa NNW 68.6 km/h 68.6 km/h 74 % 0 mm 11.0 W/m2 BKN
08:49 -11.6 °C -14 °C 34703.1 hPa North 67.3 km/h 67.3 km/h 75 % 0 mm 19.0 W/m2 BKN
08:55 -11.6 °C -14 °C 34703.1 hPa NNW 74.5 km/h 74.5 km/h 75 % 0 mm 26.0 W/m2 BKN
09:19 -11.6 °C -14 °C 34703.1 hPa North 77.4 km/h 77.4 km/h 75 % 0 mm 76.0 W/m2 FEW
09:25 -11.6 °C -14.1 °C 34703.1 hPa North 68.6 km/h 68.6 km/h 74 % 0 mm 79.0 W/m2 FEW
09:31 -11.6 °C -14.1 °C 34716.7 hPa NNW 68.6 km/h 68.6 km/h 74 % 0 mm 109.0 W/m2 CLR
09:47 -11.6 °C -14.2 °C 34716.7 hPa NW 80.5 km/h 80.5 km/h 73 % 0 mm 155.0 W/m2 CLR
10:08 -11.3 °C -14.1 °C 34726.8 hPa North 92.4 km/h 92.4 km/h 71 % 0 mm 153.0 W/m2 CLR
10:43 -11.3 °C -14.5 °C 34760.7 hPa NW 80.5 km/h 80.5 km/h 68 % 0 mm 309.0 W/m2 CLR
11:01 -11 °C -14.4 °C 34760.7 hPa NNW 74.5 km/h 74.5 km/h 66 % 0 mm 350.0 W/m2 CLR
11:23 -11 °C -14.7 °C 34774.2 hPa NNW 56.6 km/h 56.6 km/h 64 % 0 mm 388.0 W/m2 CLR
11:29 -10.7 °C -14.6 °C 34760.7 hPa North 80.5 km/h 80.5 km/h 62 % 0 mm 396.0 W/m2 CLR
12:04 -10.7 °C -15.2 °C 34740.4 hPa NNW 101.2 km/h 101.2 km/h 58 % 0 mm 443.0 W/m2 CLR
12:21 -10.7 °C -15.3 °C 34726.8 hPa NW 125 km/h 125 km/h 57 % 0 mm 455.0 W/m2 CLR
12:52 -10.7 °C -15.4 °C 34750.5 hPa NW 107.2 km/h 107.2 km/h 56 % 0 mm 512.0 W/m2 CLR
13:13 -10.4 °C -14.9 °C 34726.8 hPa North 104.3 km/h 104.3 km/h 58 % 0 mm 478.0 W/m2 CLR
13:19 -10.4 °C -15.2 °C 34716.7 hPa NNW 122.1 km/h 122.1 km/h 56 % 0 mm 476.0 W/m2 CLR
13:24 -10.4 °C -15.2 °C 34726.8 hPa NNW 128.1 km/h 128.1 km/h 56 % 0 mm 478.0 W/m2 CLR
13:48 -10.4 °C -15 °C 34726.8 hPa NNW 98.3 km/h 98.3 km/h 57 % 0 mm 468.0 W/m2 CLR
14:01 -10.4 °C -15 °C 34726.8 hPa NW 101.2 km/h 101.2 km/h 57 % 0 mm 464.0 W/m2 CLR
14:21 -10.4 °C -15 °C 34716.7 hPa NW 80.5 km/h 80.5 km/h 57 % 0 mm 445.0 W/m2 CLR
14:28 -10.4 °C -15.2 °C 34726.8 hPa NNW 92.4 km/h 92.4 km/h 56 % 0 mm 436.0 W/m2 CLR
14:42 -10.4 °C -15 °C 34703.1 hPa North 92.4 km/h 92.4 km/h 57 % 0 mm 418.0 W/m2 CLR
14:49 -10.4 °C -15.2 °C 34716.7 hPa North 92.4 km/h 92.4 km/h 56 % 0 mm 406.0 W/m2 CLR
14:57 -10.7 °C -15.2 °C 34726.8 hPa North 98.3 km/h 98.3 km/h 58 % 0 mm 394.0 W/m2 CLR
15:37 -10.7 °C -15.4 °C 34726.8 hPa NNW 65.5 km/h 65.5 km/h 56 % 0 mm 322.0 W/m2 CLR
15:43 -10.7 °C -15.7 °C 34740.4 hPa NW 62.6 km/h 62.6 km/h 54 % 0 mm 308.0 W/m2 CLR
15:49 -10.7 °C -16 °C 34740.4 hPa NNW 77.4 km/h 77.4 km/h 52 % 0 mm 290.0 W/m2 CLR
15:55 -10.7 °C -15.7 °C 34740.4 hPa NNW 86.4 km/h 86.4 km/h 54 % 0 mm 276.0 W/m2 CLR
16:01 -11 °C -16 °C 34750.5 hPa North 90.6 km/h 90.6 km/h 54 % 0 mm 260.0 W/m2 CLR
16:12 -11 °C -16 °C 34760.7 hPa NW 71.5 km/h 71.5 km/h 54 % 0 mm 227.0 W/m2 CLR
16:18 -11 °C -15.9 °C 34774.2 hPa NW 68.6 km/h 68.6 km/h 55 % 0 mm 211.0 W/m2 CLR
16:31 -11.3 °C -16 °C 34774.2 hPa NW 80.5 km/h 80.5 km/h 56 % 0 mm 176.0 W/m2 CLR
16:46 -11.3 °C -15.7 °C 34774.2 hPa NNW 77.7 km/h 77.7 km/h 58 % 0 mm 134.0 W/m2 CLR
16:52 -11.3 °C -15.6 °C 34784.4 hPa NNW 68.6 km/h 68.6 km/h 59 % 0 mm 111.0 W/m2 CLR
17:04 -11.6 °C -15.8 °C 34784.4 hPa NW 53.6 km/h 53.6 km/h 60 % 0 mm 69.0 W/m2 FEW
17:37 -11.9 °C -15.9 °C 34808.1 hPa NW 50.7 km/h 50.7 km/h 61 % 0 mm 16.0 W/m2 BKN
18:22 -12.2 °C -15.8 °C 34831.8 hPa NW 35.7 km/h 35.7 km/h 64 % 0 mm 0.0 W/m2 CLR
18:48 -12.6 °C -15.9 °C 34831.8 hPa NW 36.2 km/h 36.2 km/h 66 % 0 mm 0.0 W/m2 CLR
18:54 -12.6 °C -15.8 °C 34831.8 hPa NW 49.2 km/h 49.2 km/h 67 % 0 mm 0.0 W/m2 CLR
19:01 -12.6 °C -15.8 °C 34831.8 hPa NW 50.7 km/h 50.7 km/h 67 % 0 mm 0.0 W/m2 CLR
19:21 -12.6 °C -15.8 °C 34831.8 hPa NNW 44.7 km/h 44.7 km/h 67 % 0 mm 0.0 W/m2 CLR
19:38 -12.8 °C -15.9 °C 34841.9 hPa NNW 38.8 km/h 38.8 km/h 68 % 0 mm 0.0 W/m2 CLR
19:45 -12.8 °C -15.9 °C 34841.9 hPa NW 23.8 km/h 23.8 km/h 68 % 0 mm 0.0 W/m2 CLR
20:15 -12.8 °C -15.8 °C 34852.1 hPa NNW 44.7 km/h 44.7 km/h 69 % 0 mm 0.0 W/m2 CLR
20:37 -12.8 °C -15.7 °C 34865.6 hPa NW 47.6 km/h 47.6 km/h 70 % 0 mm 0.0 W/m2 CLR
20:42 -12.8 °C -15.7 °C 34852.1 hPa NW 32.8 km/h 32.8 km/h 70 % 0 mm 0.0 W/m2 CLR
20:47 -13.2 °C -15.9 °C 34852.1 hPa NW 29.8 km/h 29.8 km/h 71 % 0 mm 0.0 W/m2 CLR
20:52 -13.2 °C -15.9 °C 34852.1 hPa WNW 29.8 km/h 29.8 km/h 71 % 0 mm 0.0 W/m2 CLR
20:57 -13.2 °C -15.9 °C 34852.1 hPa WSW 17.9 km/h 17.9 km/h 71 % 0 mm 0.0 W/m2 CLR
21:03 -12.8 °C -15.6 °C 34852.1 hPa WNW 26.9 km/h 26.9 km/h 71 % 0 mm 0.0 W/m2 CLR
21:08 -13.2 °C -15.9 °C 34852.1 hPa WNW 29.8 km/h 29.8 km/h 71 % 0 mm 0.0 W/m2 CLR
21:13 -13.2 °C -16 °C 34852.1 hPa NW 23.8 km/h 23.8 km/h 70 % 0 mm 0.0 W/m2 CLR
21:15 -13.2 °C -16 °C 34852.1 hPa WNW 23.8 km/h 23.8 km/h 70 % 0 mm 0.0 W/m2 CLR
21:19 -13.4 °C -16.3 °C 34865.6 hPa WNW 26.9 km/h 26.9 km/h 70 % 0 mm 0.0 W/m2 CLR
21:25 -13.4 °C -16.3 °C 34865.6 hPa WNW 29.8 km/h 29.8 km/h 70 % 0 mm 0.0 W/m2 CLR
21:30 -13.4 °C -16.3 °C 34865.6 hPa WNW 31.1 km/h 31.1 km/h 70 % 0 mm 0.0 W/m2 CLR
21:35 -13.4 °C -16.3 °C 34852.1 hPa WNW 31.1 km/h 31.1 km/h 70 % 0 mm 0.0 W/m2 CLR
21:36 -13.4 °C -16.3 °C 34852.1 hPa West 26.9 km/h 26.9 km/h 70 % 0 mm 0.0 W/m2 CLR
21:41 -13.4 °C -16.3 °C 34865.6 hPa NW 32.8 km/h 32.8 km/h 70 % 0 mm 0.0 W/m2 CLR
21:43 -13.4 °C -16.3 °C 34865.6 hPa WNW 26.9 km/h 26.9 km/h 70 % 0 mm 0.0 W/m2 CLR
21:46 -13.4 °C -16.3 °C 34865.6 hPa West 23.8 km/h 23.8 km/h 70 % 0 mm 0.0 W/m2 CLR
21:51 -13.4 °C -16.2 °C 34865.6 hPa West 17.9 km/h 17.9 km/h 71 % 0 mm 0.0 W/m2 CLR
21:56 -13.4 °C -16.1 °C 34865.6 hPa West 31.1 km/h 31.1 km/h 72 % 0 mm 0.0 W/m2 CLR
22:01 -13.4 °C -16 °C 34865.6 hPa WNW 35.7 km/h 35.7 km/h 73 % 0 mm 0.0 W/m2 CLR
22:05 -13.8 °C -16.3 °C 34865.6 hPa WNW 29.8 km/h 29.8 km/h 73 % 0 mm 0.0 W/m2 CLR
22:10 -13.4 °C -16 °C 34865.6 hPa West 25.9 km/h 25.9 km/h 73 % 0 mm 0.0 W/m2 CLR
22:11 -13.4 °C -16 °C 34865.6 hPa NW 29.8 km/h 29.8 km/h 73 % 0 mm 0.0 W/m2 CLR
22:15 -13.4 °C -16 °C 34865.6 hPa WSW 20.9 km/h 20.9 km/h 73 % 0 mm 0.0 W/m2 CLR
22:19 -13.4 °C -16 °C 34865.6 hPa West 29.8 km/h 29.8 km/h 73 % 0 mm 0.0 W/m2 CLR
22:20 -13.4 °C -16 °C 34865.6 hPa WNW 29.8 km/h 29.8 km/h 73 % 0 mm 0.0 W/m2 CLR
22:21 -13.4 °C -16 °C 34865.6 hPa West 38.8 km/h 38.8 km/h 73 % 0 mm 0.0 W/m2 CLR
22:22 -13.4 °C -16 °C 34865.6 hPa West 44.7 km/h 44.7 km/h 73 % 0 mm 0.0 W/m2 CLR
22:26 -13.4 °C -16 °C 34865.6 hPa WNW 44.7 km/h 44.7 km/h 73 % 0 mm 0.0 W/m2 CLR
22:31 -13.4 °C -16.1 °C 34865.6 hPa WNW 36.2 km/h 36.2 km/h 72 % 0 mm 0.0 W/m2 CLR
22:32 -13.4 °C -16.1 °C 34865.6 hPa WNW 41.7 km/h 41.7 km/h 72 % 0 mm 0.0 W/m2 CLR
22:34 -13.4 °C -16.1 °C 34875.8 hPa WNW 36.2 km/h 36.2 km/h 72 % 0 mm 0.0 W/m2 CLR
22:39 -13.4 °C -16.2 °C 34875.8 hPa West 32.8 km/h 32.8 km/h 71 % 0 mm 0.0 W/m2 CLR
22:40 -13.4 °C -16.2 °C 34875.8 hPa WNW 41.4 km/h 41.4 km/h 71 % 0 mm 0.0 W/m2 CLR
22:45 -13.4 °C -16.2 °C 34875.8 hPa SW 29.8 km/h 29.8 km/h 71 % 0 mm 0.0 W/m2 CLR
22:48 -13.4 °C -16.2 °C 34875.8 hPa West 29.8 km/h 29.8 km/h 71 % 0 mm 0.0 W/m2 CLR
22:50 -13.2 °C -15.9 °C 34875.8 hPa West 17.9 km/h 17.9 km/h 71 % 0 mm 0.0 W/m2 CLR
22:55 -13.4 °C -16.1 °C 34875.8 hPa WNW 26.9 km/h 26.9 km/h 72 % 0 mm 0.0 W/m2 CLR
23:01 -13.4 °C -16.1 °C 34875.8 hPa NW 29.8 km/h 29.8 km/h 72 % 0 mm 0.0 W/m2 CLR
23:06 -13.4 °C -16.2 °C 34875.8 hPa WNW 29.8 km/h 29.8 km/h 71 % 0 mm 0.0 W/m2 CLR
23:11 -13.4 °C -16.2 °C 34875.8 hPa WNW 38.8 km/h 38.8 km/h 71 % 0 mm 0.0 W/m2 CLR
23:16 -13.4 °C -16.2 °C 34875.8 hPa West 29.8 km/h 29.8 km/h 71 % 0 mm 0.0 W/m2 CLR
23:21 -13.4 °C -16.2 °C 34875.8 hPa WNW 26.9 km/h 26.9 km/h 71 % 0 mm 0.0 W/m2 CLR
23:26 -13.8 °C -16.4 °C 34865.6 hPa NW 32.8 km/h 32.8 km/h 72 % 0 mm 0.0 W/m2 CLR
23:31 -13.8 °C -16.4 °C 34875.8 hPa WNW 38.8 km/h 38.8 km/h 72 % 0 mm 0.0 W/m2 CLR
23:36 -13.4 °C -16.1 °C 34875.8 hPa West 18.2 km/h 18.2 km/h 72 % 0 mm 0.0 W/m2 CLR
23:41 -13.4 °C -16.1 °C 34875.8 hPa NW 26.9 km/h 26.9 km/h 72 % 0 mm 0.0 W/m2 CLR
23:46 -13.8 °C -16.3 °C 34865.6 hPa WNW 35.7 km/h 35.7 km/h 73 % 0 mm 0.0 W/m2 CLR
23:51 -13.4 °C -16.1 °C 34875.8 hPa West 29.8 km/h 29.8 km/h 72 % 0 mm 0.0 W/m2 CLR
23:56 -13.4 °C -16 °C 34875.8 hPa WNW 23.8 km/h 23.8 km/h 73 % 0 mm 0.0 W/m2 CLR
Lo Temps de Massalio
Compliments of Weather Underground - 768 kb